Time,TemperatureF,DewpointF,PressureIn,WindDirection,WindDirectionDegrees,WindSpeedMPH,WindSpeedGustMPH,Humidity,HourlyPrecipIn,Conditions,Clouds,dailyrainin,SoftwareType,DateUTC
2013-07-17 00:05:00,71.3,71.3,30.28,North,360,0.0,0.0,100,0.00,,,0.00,Wunderground v.1.15,2013-07-17 04:05:00,
2013-07-17 00:15:00,71.1,71.1,30.28,North,360,0.0,0.0,100,0.00,,,0.00,Wunderground v.1.15,2013-07-17 04:15:00,
2013-07-17 00:20:00,71.0,71.0,30.27,North,360,0.0,0.0,100,0.00,,,0.00,Wunderground v.1.15,2013-07-17 04:20:00,
2013-07-17 00:29:00,70.8,70.8,30.27,North,360,0.0,0.0,100,0.00,,,0.00,Wunderground v.1.15,2013-07-17 04:29:00,
2013-07-17 00:35:00,70.7,70.7,30.27,North,360,0.0,0.0,100,0.00,,,0.00,Wunderground v.1.15,2013-07-17 04:35:00,
2013-07-17 00:40:00,70.7,70.7,30.27,North,360,0.0,0.0,100,0.00,,,0.00,Wunderground v.1.15,2013-07-17 04:40:00,
2013-07-17 00:45:00,70.5,70.5,30.27,North,360,0.0,0.0,100,0.00,,,0.00,Wunderground v.1.15,2013-07-17 04:45:00,
2013-07-17 00:55:00,70.3,70.3,30.26,North,360,0.0,0.0,100,0.00,,,0.00,Wunderground v.1.15,2013-07-17 04:55:00,
2013-07-17 01:00:00,70.2,70.2,30.26,North,360,0.0,0.0,100,0.00,,,0.00,Wunderground v.1.15,2013-07-17 05:00:00,
2013-07-17 01:05:00,70.1,70.1,30.26,North,360,0.0,0.0,100,0.00,,,0.00,Wunderground v.1.15,2013-07-17 05:05:00,
2013-07-17 01:10:00,70.0,70.0,30.26,North,360,0.0,0.0,100,0.00,,,0.00,Wunderground v.1.15,2013-07-17 05:10:00,
2013-07-17 01:20:00,69.8,69.8,30.25,North,360,0.0,0.0,100,0.00,,,0.00,Wunderground v.1.15,2013-07-17 05:20:00,
2013-07-17 01:30:00,69.7,69.7,30.25,North,360,0.0,0.0,100,0.00,,,0.00,Wunderground v.1.15,2013-07-17 05:30:00,
2013-07-17 01:39:00,69.5,69.5,30.25,North,360,0.0,0.0,100,0.00,,,0.00,Wunderground v.1.15,2013-07-17 05:39:00,
2013-07-17 01:45:00,69.4,69.4,30.25,North,360,0.0,0.0,100,0.00,,,0.00,Wunderground v.1.15,2013-07-17 05:45:00,
2013-07-17 01:50:00,69.4,69.4,30.25,North,360,0.0,0.0,100,0.00,,,0.00,Wunderground v.1.15,2013-07-17 05:50:00,
2013-07-17 02:00:00,69.2,69.2,30.25,North,360,0.0,0.0,100,0.00,,,0.00,Wunderground v.1.15,2013-07-17 06:00:00,
2013-07-17 02:10:00,69.0,69.0,30.24,North,360,0.0,0.0,100,0.00,,,0.00,Wunderground v.1.15,2013-07-17 06:10:00,
2013-07-17 02:15:00,69.0,69.0,30.24,North,360,0.0,0.0,100,0.00,,,0.00,Wunderground v.1.15,2013-07-17 06:15:00,
2013-07-17 02:20:00,68.9,68.9,30.24,North,360,0.0,0.0,100,0.00,,,0.00,Wunderground v.1.15,2013-07-17 06:20:00,
2013-07-17 02:30:00,68.7,68.7,30.24,North,360,0.0,0.0,100,0.00,,,0.00,Wunderground v.1.15,2013-07-17 06:30:00,
2013-07-17 02:40:00,68.6,68.6,30.24,North,360,0.0,0.0,100,0.00,,,0.00,Wunderground v.1.15,2013-07-17 06:40:00,
2013-07-17 02:50:00,68.5,68.5,30.24,North,360,0.0,0.0,100,0.00,,,0.00,Wunderground v.1.15,2013-07-17 06:50:00,
2013-07-17 02:55:00,68.4,68.4,30.24,North,360,0.0,0.0,100,0.00,,,0.00,Wunderground v.1.15,2013-07-17 06:55:00,
2013-07-17 03:00:00,68.3,68.3,30.24,North,360,0.0,0.0,100,0.00,,,0.00,Wunderground v.1.15,2013-07-17 07:00:00,
2013-07-17 03:10:00,68.2,68.2,30.23,North,360,0.0,0.0,100,0.00,,,0.00,Wunderground v.1.15,2013-07-17 07:10:00,
2013-07-17 03:20:00,68.1,68.1,30.23,North,360,0.0,0.0,100,0.00,,,0.00,Wunderground v.1.15,2013-07-17 07:20:00,
2013-07-17 03:30:00,68.0,68.0,30.23,North,360,0.0,0.0,100,0.00,,,0.00,Wunderground v.1.15,2013-07-17 07:30:00,
2013-07-17 03:35:00,67.9,67.9,30.23,North,360,0.0,0.0,100,0.00,,,0.00,Wunderground v.1.15,2013-07-17 07:35:00,
2013-07-17 03:45:00,67.9,67.9,30.23,North,360,0.0,0.0,100,0.00,,,0.00,Wunderground v.1.15,2013-07-17 07:45:00,
2013-07-17 03:50:00,67.8,67.8,30.23,North,360,0.0,0.0,100,0.00,,,0.00,Wunderground v.1.15,2013-07-17 07:50:00,
2013-07-17 04:00:00,67.8,67.8,30.23,North,360,0.0,0.0,100,0.00,,,0.00,Wunderground v.1.15,2013-07-17 08:00:00,
2013-07-17 04:09:00,67.6,67.6,30.22,North,360,0.0,0.0,100,0.00,,,0.00,Wunderground v.1.15,2013-07-17 08:09:00,
2013-07-17 04:15:00,67.6,67.6,30.22,North,360,0.0,0.0,100,0.00,,,0.00,Wunderground v.1.15,2013-07-17 08:15:00,
2013-07-17 04:20:00,67.5,67.5,30.23,North,360,0.0,0.0,100,0.00,,,0.00,Wunderground v.1.15,2013-07-17 08:20:00,
2013-07-17 04:30:00,67.4,67.4,30.23,North,360,0.0,0.0,100,0.00,,,0.00,Wunderground v.1.15,2013-07-17 08:30:00,
2013-07-17 04:39:00,67.3,67.3,30.23,North,360,0.0,0.0,100,0.00,,,0.00,Wunderground v.1.15,2013-07-17 08:39:00,
2013-07-17 04:45:00,67.2,67.2,30.23,North,360,0.0,0.0,100,0.00,,,0.00,Wunderground v.1.15,2013-07-17 08:45:00,
2013-07-17 04:50:00,67.2,67.2,30.24,North,360,0.0,0.0,100,0.00,,,0.00,Wunderground v.1.15,2013-07-17 08:50:00,
2013-07-17 05:00:00,67.0,67.0,30.24,North,360,0.0,0.0,100,0.00,,,0.00,Wunderground v.1.15,2013-07-17 09:00:00,
2013-07-17 05:10:00,66.9,66.9,30.24,North,360,0.0,0.0,100,0.00,,,0.00,Wunderground v.1.15,2013-07-17 09:10:00,
2013-07-17 05:15:00,66.9,66.9,30.24,North,360,0.0,0.0,100,0.00,,,0.00,Wunderground v.1.15,2013-07-17 09:15:00,
2013-07-17 05:25:00,66.8,66.8,30.24,North,360,0.0,0.0,100,0.00,,,0.00,Wunderground v.1.15,2013-07-17 09:25:00,
2013-07-17 05:30:00,66.7,66.7,30.24,North,360,0.0,0.0,100,0.00,,,0.00,Wunderground v.1.15,2013-07-17 09:30:00,
2013-07-17 05:40:00,66.6,66.6,30.24,North,360,0.0,0.0,100,0.00,,,0.00,Wunderground v.1.15,2013-07-17 09:40:00,
2013-07-17 05:49:00,66.6,66.6,30.24,North,360,0.0,0.0,100,0.00,,,0.00,Wunderground v.1.15,2013-07-17 09:49:00,
2013-07-17 05:55:00,66.5,66.5,30.24,North,360,0.0,0.0,100,0.00,,,0.00,Wunderground v.1.15,2013-07-17 09:55:00,
2013-07-17 06:05:00,66.4,66.4,30.24,North,360,0.0,0.0,100,0.00,,,0.00,Wunderground v.1.15,2013-07-17 10:05:00,
2013-07-17 06:10:00,66.4,66.4,30.24,North,360,0.0,0.0,100,0.00,,,0.00,Wunderground v.1.15,2013-07-17 10:10:00,
2013-07-17 06:20:00,66.3,66.3,30.24,North,360,0.0,0.0,100,0.00,,,0.00,Wunderground v.1.15,2013-07-17 10:20:00,
2013-07-17 06:29:00,66.2,66.2,30.24,North,360,0.0,0.0,100,0.00,,,0.00,Wunderground v.1.15,2013-07-17 10:29:00,
2013-07-17 06:35:00,66.1,66.1,30.24,North,360,0.0,0.0,100,0.00,,,0.00,Wunderground v.1.15,2013-07-17 10:35:00,
2013-07-17 06:40:00,66.0,66.0,30.24,North,360,0.0,0.0,100,0.00,,,0.00,Wunderground v.1.15,2013-07-17 10:40:00,
2013-07-17 06:50:00,65.9,65.9,30.25,North,360,0.0,0.0,100,0.00,,,0.00,Wunderground v.1.15,2013-07-17 10:50:00,
2013-07-17 07:00:00,65.8,65.8,30.25,North,360,0.0,0.0,100,0.00,,,0.00,Wunderground v.1.15,2013-07-17 11:00:00,
2013-07-17 07:05:00,65.7,65.7,30.26,North,360,0.0,0.0,100,0.00,,,0.00,Wunderground v.1.15,2013-07-17 11:05:00,
2013-07-17 07:10:00,65.8,65.8,30.26,North,360,0.0,0.0,100,0.00,,,0.00,Wunderground v.1.15,2013-07-17 11:10:00,
2013-07-17 07:20:00,65.9,65.9,30.26,North,360,0.0,0.0,100,0.00,,,0.00,Wunderground v.1.15,2013-07-17 11:20:00,
2013-07-17 07:30:00,65.9,65.9,30.26,NE,45,0.0,0.0,100,0.00,,,0.00,Wunderground v.1.15,2013-07-17 11:30:00,
2013-07-17 07:39:00,66.1,66.1,30.26,NE,45,0.0,0.0,100,0.00,,,0.00,Wunderground v.1.15,2013-07-17 11:39:00,
2013-07-17 07:45:00,66.3,66.3,30.26,NE,45,0.0,0.0,100,0.00,,,0.00,Wunderground v.1.15,2013-07-17 11:45:00,
2013-07-17 07:50:00,66.6,66.6,30.26,NE,45,0.0,0.0,100,0.00,,,0.00,Wunderground v.1.15,2013-07-17 11:50:00,
2013-07-17 08:00:00,66.8,66.8,30.26,NE,45,0.0,0.0,100,0.00,,,0.00,Wunderground v.1.15,2013-07-17 12:00:00,
2013-07-17 08:05:00,67.1,67.1,30.26,NE,45,0.0,0.0,100,0.00,,,0.00,Wunderground v.1.15,2013-07-17 12:05:00,
2013-07-17 08:10:00,67.3,67.3,30.26,NE,45,0.0,0.0,100,0.00,,,0.00,Wunderground v.1.15,2013-07-17 12:10:00,
2013-07-17 08:20:00,67.9,67.9,30.27,North,360,0.0,0.0,100,0.00,,,0.00,Wunderground v.1.15,2013-07-17 12:20:00,
2013-07-17 08:30:00,68.4,68.4,30.27,North,360,0.0,0.0,100,0.00,,,0.00,Wunderground v.1.15,2013-07-17 12:30:00,
2013-07-17 08:40:00,69.1,69.1,30.27,North,360,0.0,0.0,100,0.00,,,0.00,Wunderground v.1.15,2013-07-17 12:40:00,
2013-07-17 08:45:00,69.4,69.4,30.27,North,360,0.0,0.0,100,0.00,,,0.00,Wunderground v.1.15,2013-07-17 12:45:00,
2013-07-17 08:50:00,69.6,69.6,30.27,North,360,0.0,0.0,100,0.00,,,0.00,Wunderground v.1.15,2013-07-17 12:50:00,
2013-07-17 09:00:00,70.1,70.1,30.27,North,360,0.0,0.0,100,0.00,,,0.00,Wunderground v.1.15,2013-07-17 13:00:00,
2013-07-17 09:10:00,70.6,70.6,30.27,North,360,0.0,0.0,100,0.00,,,0.00,Wunderground v.1.15,2013-07-17 13:10:00,
2013-07-17 09:19:00,71.0,71.0,30.27,North,360,0.0,0.0,100,0.00,,,0.00,Wunderground v.1.15,2013-07-17 13:19:00,
2013-07-17 09:25:00,71.3,71.3,30.27,North,360,0.0,0.0,100,0.00,,,0.00,Wunderground v.1.15,2013-07-17 13:25:00,
2013-07-17 09:30:00,71.5,71.5,30.27,North,360,0.0,0.0,100,0.00,,,0.00,Wunderground v.1.15,2013-07-17 13:30:00,
2013-07-17 09:40:00,71.9,71.9,30.27,North,360,0.0,0.0,100,0.00,,,0.00,Wunderground v.1.15,2013-07-17 13:40:00,
2013-07-17 09:49:00,72.5,72.5,30.26,North,360,0.0,0.0,100,0.00,,,0.00,Wunderground v.1.15,2013-07-17 13:49:00,
2013-07-17 09:55:00,72.8,72.8,30.26,North,360,0.0,0.0,100,0.00,,,0.00,Wunderground v.1.15,2013-07-17 13:55:00,
2013-07-17 10:05:00,73.4,73.4,30.26,North,360,0.0,0.0,100,0.00,,,0.00,Wunderground v.1.15,2013-07-17 14:05:00,
2013-07-17 10:10:00,73.7,73.7,30.26,North,360,0.0,0.0,100,0.00,,,0.00,Wunderground v.1.15,2013-07-17 14:10:00,
2013-07-17 10:15:00,74.1,74.1,30.26,North,360,0.0,0.0,100,0.00,,,0.00,Wunderground v.1.15,2013-07-17 14:15:00,
2013-07-17 10:20:00,74.4,74.4,30.26,North,360,0.0,0.0,100,0.00,,,0.00,Wunderground v.1.15,2013-07-17 14:20:00,
2013-07-17 10:30:00,75.1,75.1,30.26,North,360,0.0,0.0,100,0.00,,,0.00,Wunderground v.1.15,2013-07-17 14:30:00,
2013-07-17 10:40:00,75.7,75.7,30.26,North,360,0.0,0.0,100,0.00,,,0.00,Wunderground v.1.15,2013-07-17 14:40:00,
2013-07-17 10:49:00,76.5,76.5,30.26,North,360,0.0,0.0,100,0.00,,,0.00,Wunderground v.1.15,2013-07-17 14:49:00,
2013-07-17 10:55:00,76.8,76.5,30.26,North,360,0.0,0.0,99,0.00,,,0.00,Wunderground v.1.15,2013-07-17 14:55:00,
2013-07-17 11:00:00,77.0,76.4,30.26,North,360,0.0,0.0,98,0.00,,,0.00,Wunderground v.1.15,2013-07-17 15:00:00,
2013-07-17 11:10:00,78.0,76.5,30.25,North,360,0.0,0.0,95,0.00,,,0.00,Wunderground v.1.15,2013-07-17 15:10:00,
2013-07-17 11:19:00,79.1,75.9,30.25,North,360,0.0,0.0,90,0.00,,,0.00,Wunderground v.1.15,2013-07-17 15:19:00,
2013-07-17 11:25:00,79.6,77.1,30.25,North,360,0.0,0.0,92,0.00,,,0.00,Wunderground v.1.15,2013-07-17 15:25:00,
2013-07-17 11:30:00,80.0,77.5,30.25,North,360,0.0,0.0,92,0.00,,,0.00,Wunderground v.1.15,2013-07-17 15:30:00,
2013-07-17 11:40:00,80.8,77.3,30.25,North,360,0.0,0.0,89,0.00,,,0.00,Wunderground v.1.15,2013-07-17 15:40:00,
2013-07-17 11:50:00,81.4,77.5,30.24,North,360,0.0,0.0,88,0.00,,,0.00,Wunderground v.1.15,2013-07-17 15:50:00,
2013-07-17 11:55:00,81.9,78.0,30.24,North,360,0.0,0.0,88,0.00,,,0.00,Wunderground v.1.15,2013-07-17 15:55:00,
2013-07-17 12:04:00,82.5,77.9,30.24,North,360,0.0,0.0,86,0.00,,,0.00,Wunderground v.1.15,2013-07-17 16:04:00,
2013-07-17 12:09:00,82.8,77.8,30.24,ENE,74,0.0,0.0,85,0.00,,,0.00,Wunderground v.1.15,2013-07-17 16:09:00,
2013-07-17 12:15:00,83.0,78.4,30.24,ENE,74,0.0,0.0,86,0.00,,,0.00,Wunderground v.1.15,2013-07-17 16:15:00,
2013-07-17 12:20:00,83.2,78.9,30.24,North,360,0.0,0.0,87,0.00,,,0.00,Wunderground v.1.15,2013-07-17 16:20:00,
2013-07-17 12:30:00,83.5,78.2,30.24,North,360,0.0,0.0,84,0.00,,,0.00,Wunderground v.1.15,2013-07-17 16:30:00,
2013-07-17 12:39:00,83.9,78.2,30.23,North,360,0.0,0.0,83,0.00,,,0.00,Wunderground v.1.15,2013-07-17 16:39:00,
2013-07-17 12:45:00,84.1,79.1,30.23,North,360,0.0,0.0,85,0.00,,,0.00,Wunderground v.1.15,2013-07-17 16:45:00,
2013-07-17 12:50:00,84.4,78.3,30.24,North,360,0.0,0.0,82,0.00,,,0.00,Wunderground v.1.15,2013-07-17 16:50:00,
2013-07-17 13:00:00,85.6,79.8,30.24,North,360,0.0,0.0,83,0.00,,,0.00,Wunderground v.1.15,2013-07-17 17:00:00,
2013-07-17 13:10:00,86.4,79.5,30.23,North,360,0.0,0.0,80,0.00,,,0.00,Wunderground v.1.15,2013-07-17 17:10:00,
2013-07-17 13:15:00,87.2,78.7,30.23,North,360,0.0,0.0,76,0.00,,,0.00,Wunderground v.1.15,2013-07-17 17:15:00,
2013-07-17 13:25:00,89.1,80.9,30.23,North,360,0.0,0.0,77,0.00,,,0.00,Wunderground v.1.15,2013-07-17 17:25:00,
2013-07-17 13:30:00,89.9,80.5,30.23,North,360,0.0,0.0,74,0.00,,,0.00,Wunderground v.1.15,2013-07-17 17:30:00,
2013-07-17 13:40:00,90.0,80.2,30.22,North,360,0.0,0.0,73,0.00,,,0.00,Wunderground v.1.15,2013-07-17 17:40:00,
2013-07-17 13:49:00,90.7,82.1,30.22,North,360,0.0,0.0,76,0.00,,,0.00,Wunderground v.1.15,2013-07-17 17:49:00,
2013-07-17 13:55:00,91.2,81.3,30.22,North,360,0.0,0.0,73,0.00,,,0.00,Wunderground v.1.15,2013-07-17 17:55:00,
2013-07-17 14:05:00,91.8,81.5,30.21,North,360,0.0,0.0,72,0.00,,,0.00,Wunderground v.1.15,2013-07-17 18:05:00,
2013-07-17 14:10:00,91.9,81.1,30.21,North,360,0.0,0.0,71,0.00,,,0.00,Wunderground v.1.15,2013-07-17 18:10:00,
2013-07-17 14:19:00,92.1,80.5,30.20,North,360,0.0,0.0,69,0.00,,,0.00,Wunderground v.1.15,2013-07-17 18:19:00,
2013-07-17 14:25:00,92.2,81.9,30.20,North,360,0.0,0.0,72,0.00,,,0.00,Wunderground v.1.15,2013-07-17 18:25:00,
2013-07-17 14:30:00,91.7,80.5,30.20,North,360,0.0,0.0,70,0.00,,,0.00,Wunderground v.1.15,2013-07-17 18:30:00,
2013-07-17 14:40:00,91.3,81.0,30.19,North,360,0.0,0.0,72,0.00,,,0.00,Wunderground v.1.15,2013-07-17 18:40:00,
2013-07-17 14:50:00,91.0,79.8,30.18,North,360,0.0,0.0,70,0.00,,,0.00,Wunderground v.1.15,2013-07-17 18:50:00,
2013-07-17 14:59:00,91.2,79.6,30.18,North,360,0.0,0.0,69,0.00,,,0.00,Wunderground v.1.15,2013-07-17 18:59:00,
2013-07-17 15:05:00,91.5,79.9,30.18,North,360,0.0,0.0,69,0.00,,,0.00,Wunderground v.1.15,2013-07-17 19:05:00,
2013-07-17 15:15:00,92.2,80.1,30.18,North,360,0.0,0.0,68,0.00,,,0.00,Wunderground v.1.15,2013-07-17 19:15:00,
2013-07-17 15:24:00,93.4,81.7,30.17,North,360,0.0,0.0,69,0.00,,,0.00,Wunderground v.1.15,2013-07-17 19:24:00,
2013-07-17 15:30:00,93.7,81.5,30.17,North,360,0.0,0.0,68,0.00,,,0.00,Wunderground v.1.15,2013-07-17 19:30:00,
2013-07-17 15:35:00,93.9,81.3,30.16,North,360,0.0,0.0,67,0.00,,,0.00,Wunderground v.1.15,2013-07-17 19:35:00,
2013-07-17 15:40:00,93.6,80.5,30.16,North,360,0.0,0.0,66,0.00,,,0.00,Wunderground v.1.15,2013-07-17 19:40:00,
2013-07-17 15:50:00,94.1,81.0,30.15,North,360,0.0,0.0,66,0.00,,,0.00,Wunderground v.1.15,2013-07-17 19:50:00,
2013-07-17 15:59:00,95.0,81.4,30.15,North,32767,0.0,0.0,65,0.00,,,0.00,Wunderground v.1.15,2013-07-17 19:59:00,
2013-07-17 16:05:00,94.6,80.0,30.15,North,5,0.0,0.0,63,0.00,,,0.00,Wunderground v.1.15,2013-07-17 20:05:00,
2013-07-17 16:10:00,94.1,80.5,30.15,East,90,0.0,0.0,65,0.00,,,0.00,Wunderground v.1.15,2013-07-17 20:10:00,
2013-07-17 16:20:00,92.5,79.0,30.16,NNE,19,0.0,0.0,65,0.00,,,0.00,Wunderground v.1.15,2013-07-17 20:20:00,
2013-07-17 16:30:00,90.8,77.9,30.16,NNE,15,0.0,0.0,66,0.00,,,0.00,Wunderground v.1.15,2013-07-17 20:30:00,
2013-07-17 16:40:00,89.5,74.8,30.15,NNE,29,0.0,2.0,62,0.00,,,0.00,Wunderground v.1.15,2013-07-17 20:40:00,
2013-07-17 16:50:00,88.2,76.3,30.14,North,5,0.0,0.0,68,0.00,,,0.00,Wunderground v.1.15,2013-07-17 20:50:00,
2013-07-17 17:00:00,87.5,76.9,30.14,NNE,32,0.0,0.0,71,0.00,,,0.00,Wunderground v.1.15,2013-07-17 21:00:00,
2013-07-17 17:09:00,87.0,76.9,30.14,ESE,105,0.0,0.0,72,0.00,,,0.00,Wunderground v.1.15,2013-07-17 21:09:00,
2013-07-17 17:15:00,87.0,77.3,30.14,NNW,345,0.0,0.0,73,0.00,,,0.00,Wunderground v.1.15,2013-07-17 21:15:00,
2013-07-17 17:20:00,87.1,77.8,30.13,NNW,345,0.0,0.0,74,0.00,,,0.00,Wunderground v.1.15,2013-07-17 21:20:00,
2013-07-17 17:30:00,86.5,78.0,30.13,North,355,0.0,0.0,76,0.00,,,0.00,Wunderground v.1.15,2013-07-17 21:30:00,
2013-07-17 17:40:00,85.5,77.9,30.14,North,355,0.0,0.0,78,0.00,,,0.00,Wunderground v.1.15,2013-07-17 21:40:00,
2013-07-17 17:50:00,84.2,78.5,30.14,North,355,0.0,0.0,83,0.00,,,0.00,Wunderground v.1.15,2013-07-17 21:50:00,
2013-07-17 18:00:00,82.5,78.9,30.14,North,355,0.0,0.0,89,0.00,,,0.01,Wunderground v.1.15,2013-07-17 22:00:00,
2013-07-17 18:10:00,80.6,78.1,30.16,North,355,0.0,0.0,92,0.00,,,0.01,Wunderground v.1.15,2013-07-17 22:10:00,
2013-07-17 18:20:00,79.2,77.3,30.17,North,355,0.0,0.0,94,0.00,,,0.02,Wunderground v.1.15,2013-07-17 22:20:00,
2013-07-17 18:25:00,78.7,77.1,30.17,North,355,0.0,0.0,95,0.00,,,0.02,Wunderground v.1.15,2013-07-17 22:25:00,
2013-07-17 18:35:00,77.7,76.5,30.17,North,350,0.0,0.0,96,0.00,,,0.02,Wunderground v.1.15,2013-07-17 22:35:00,
2013-07-17 18:40:00,77.3,75.4,30.17,North,350,0.0,0.0,94,0.00,,,0.02,Wunderground v.1.15,2013-07-17 22:40:00,
2013-07-17 18:50:00,76.6,75.4,30.17,North,360,0.0,0.0,96,0.00,,,0.02,Wunderground v.1.15,2013-07-17 22:50:00,
2013-07-17 18:59:00,75.8,74.6,30.17,NNW,346,0.0,0.0,96,0.00,,,0.02,Wunderground v.1.15,2013-07-17 22:59:00,
2013-07-17 19:05:00,75.5,74.6,30.18,NNW,347,0.0,0.0,97,0.00,,,0.02,Wunderground v.1.15,2013-07-17 23:05:00,
2013-07-17 19:10:00,75.3,73.5,30.18,North,360,0.0,0.0,94,0.00,,,0.02,Wunderground v.1.15,2013-07-17 23:10:00,
2013-07-17 19:20:00,74.9,72.7,30.17,North,360,0.0,0.0,93,0.00,,,0.02,Wunderground v.1.15,2013-07-17 23:20:00,
2013-07-17 19:29:00,74.4,73.2,30.17,North,360,0.0,0.0,96,0.00,,,0.02,Wunderground v.1.15,2013-07-17 23:29:00,
2013-07-17 19:35:00,74.1,72.9,30.18,North,360,0.0,0.0,96,0.00,,,0.02,Wunderground v.1.15,2013-07-17 23:35:00,
2013-07-17 19:40:00,73.9,72.7,30.18,North,360,0.0,0.0,96,0.00,,,0.02,Wunderground v.1.15,2013-07-17 23:40:00,
2013-07-17 19:50:00,73.3,72.4,30.20,North,360,0.0,0.0,97,0.00,,,0.02,Wunderground v.1.15,2013-07-17 23:50:00,
2013-07-17 20:00:00,73.0,73.0,30.20,North,360,0.0,0.0,100,0.00,,,0.02,Wunderground v.1.15,2013-07-18 00:00:00,
2013-07-17 20:09:00,72.6,72.6,30.20,North,360,0.0,0.0,100,0.00,,,0.02,Wunderground v.1.15,2013-07-18 00:09:00,
2013-07-17 20:15:00,72.5,72.5,30.20,North,360,0.0,0.0,100,0.00,,,0.02,Wunderground v.1.15,2013-07-18 00:15:00,
2013-07-17 20:20:00,72.1,72.1,30.22,North,360,0.0,0.0,100,0.00,,,0.02,Wunderground v.1.15,2013-07-18 00:20:00,
2013-07-17 20:30:00,71.5,71.5,30.22,North,360,0.0,0.0,100,0.00,,,0.03,Wunderground v.1.15,2013-07-18 00:30:00,
2013-07-17 20:40:00,71.1,71.1,30.22,North,360,0.0,0.0,100,0.04,,,0.04,Wunderground v.1.15,2013-07-18 00:40:00,
2013-07-17 20:49:00,70.7,70.7,30.20,North,360,0.0,0.0,100,0.05,,,0.05,Wunderground v.1.15,2013-07-18 00:49:00,
2013-07-17 20:55:00,70.3,70.3,30.20,North,360,0.0,0.0,100,0.05,,,0.05,Wunderground v.1.15,2013-07-18 00:55:00,
2013-07-17 21:00:00,70.0,70.0,30.20,North,360,0.0,0.0,100,0.07,,,0.06,Wunderground v.1.15,2013-07-18 01:00:00,
2013-07-17 21:10:00,69.8,69.8,30.21,North,360,0.0,0.0,100,0.05,,,0.06,Wunderground v.1.15,2013-07-18 01:10:00,
2013-07-17 21:19:00,69.9,69.9,30.23,North,360,0.0,0.0,100,0.04,,,0.07,Wunderground v.1.15,2013-07-18 01:19:00,
2013-07-17 21:25:00,69.9,69.9,30.23,North,360,0.0,0.0,100,0.04,,,0.07,Wunderground v.1.15,2013-07-18 01:25:00,
2013-07-17 21:30:00,70.0,70.0,30.23,North,360,0.0,0.0,100,0.00,,,0.07,Wunderground v.1.15,2013-07-18 01:30:00,
2013-07-17 21:40:00,70.3,70.3,30.25,NE,39,0.0,0.0,100,0.00,,,0.07,Wunderground v.1.15,2013-07-18 01:40:00,
2013-07-17 21:50:00,70.3,70.3,30.27,NE,39,0.0,0.0,100,0.00,,,0.07,Wunderground v.1.15,2013-07-18 01:50:00,
2013-07-17 21:55:00,70.3,70.3,30.27,NE,37,0.0,0.0,100,0.00,,,0.07,Wunderground v.1.15,2013-07-18 01:55:00,
2013-07-17 22:00:00,70.3,70.3,30.27,NE,38,0.0,0.0,100,0.00,,,0.07,Wunderground v.1.15,2013-07-18 02:00:00,
2013-07-17 22:10:00,70.5,70.5,30.28,NE,38,0.0,0.0,100,0.00,,,0.07,Wunderground v.1.15,2013-07-18 02:10:00,
2013-07-17 22:20:00,70.5,70.5,30.30,NE,38,0.0,0.0,100,0.00,,,0.07,Wunderground v.1.15,2013-07-18 02:20:00,
2013-07-17 22:29:00,70.3,70.3,30.30,NE,38,0.0,0.0,100,0.00,,,0.07,Wunderground v.1.15,2013-07-18 02:29:00,
2013-07-17 22:35:00,70.3,70.3,30.29,NE,37,0.0,0.0,100,0.00,,,0.07,Wunderground v.1.15,2013-07-18 02:35:00,
2013-07-17 22:40:00,70.2,70.2,30.29,NE,37,0.0,0.0,100,0.00,,,0.07,Wunderground v.1.15,2013-07-18 02:40:00,
2013-07-17 22:50:00,70.1,70.1,30.30,NE,38,0.0,0.0,100,0.22,,,0.10,Wunderground v.1.15,2013-07-18 02:50:00,
2013-07-17 22:59:00,69.9,69.9,30.30,NE,38,0.0,0.0,100,0.13,,,0.13,Wunderground v.1.15,2013-07-18 02:59:00,
2013-07-17 23:05:00,69.8,69.8,30.29,NE,38,0.0,0.0,100,0.13,,,0.14,Wunderground v.1.15,2013-07-18 03:05:00,
2013-07-17 23:15:00,69.5,69.5,30.29,NE,38,0.0,0.0,100,0.18,,,0.17,Wunderground v.1.15,2013-07-18 03:15:00,
2013-07-17 23:20:00,69.4,69.4,30.27,NE,38,0.0,0.0,100,0.11,,,0.18,Wunderground v.1.15,2013-07-18 03:20:00,
2013-07-17 23:29:00,69.4,69.4,30.27,NE,38,0.0,0.0,100,0.13,,,0.19,Wunderground v.1.15,2013-07-18 03:29:00,
2013-07-17 23:35:00,69.2,69.2,30.26,NE,38,0.0,0.0,100,0.20,,,0.20,Wunderground v.1.15,2013-07-18 03:35:00,
2013-07-17 23:40:00,69.2,69.2,30.26,NE,38,0.0,0.0,100,0.26,,,0.22,Wunderground v.1.15,2013-07-18 03:40:00,
2013-07-17 23:50:00,69.1,69.1,30.24,NE,38,0.0,0.0,100,0.11,,,0.25,Wunderground v.1.15,2013-07-18 03:50:00,
2013-07-17 23:59:00,69.0,69.0,30.24,NE,38,0.0,0.0,100,0.10,,,0.26,Wunderground v.1.15,2013-07-18 03:59:00,